Startpagina
METAR-TAF:

METAR-TAF

Vliegvelden :

Nouméa / La Tontouta, Nieuw-Caledonië

breedte: 22-01S, lengte: 166-13E, hoogte: 16 m

Actueel weer

Dit bericht is 31 minuten geleden gemaakt, om 19:00 UTC
Weinig wind
Temperatuur 22°C
Vochtigheid 65%
Druk 1012 hPa
Zicht 10 km of meer
geen wolken onder 1500 m en geen cumulonimbus

METAR: NWWW 211900Z AUTO 00000KT CAVOK 22/15 Q1012 TEMPO 07010KT

Tijdstip: 06:31 (19:31 UTC)

Verwachting

Dit bericht is 2 uur en het 31 minuten geleden gemaakt, om 17:00 UTC
Verwachting geldig van 21 om 18 UTC tot 22 om 18 UTC
Wind 3 kt uit variabele richting
Zicht 10 km of meer
Weinig wolken op 4500 ft
Verspreide wolken op 6500 ft
Kans 30% :
Tijdelijke
van 21 om 18 UTC tot 21 om 21 UTC
Wind 10 kt uit het oostnoordoosten
Kans 30% :
Tijdelijke
van 22 om 03 UTC tot 22 om 06 UTC
regenbuien

TAF: NWWW 211700Z 2118/2218 VRB03KT 9999 FEW045 SCT065 PROB30 TEMPO 2118/2121 07010KT PROB30 TEMPO 2203/2206 SHRA

Waarnemingen en weersverwachtingen van meer dan 4000 vliegvelden (METAR en TAF).

De beschikbare stations zijn de gele en rode punten op de kaart.

Ga met uw muis naar het station om de naam te zien.

Klik dan om waarnemingen en weersverwachtingen te zien.

kaart wijzigen: klik op de groene knoppen met een zwart kruis om in te zoomen, op de groene knop met een streepje om uit te zoomen of op de groene pijlen voor aangrenzende kaarten.


METAR-TAF: